createdAt,value
2018-02-07T00:00:57.709Z,100921.21
2018-02-07T00:03:26.132Z,100920.09
2018-02-07T00:05:54.488Z,100914.66
2018-02-07T00:08:22.856Z,100915.77
2018-02-07T00:10:51.222Z,100914.34
2018-02-07T00:13:19.620Z,100906.69
2018-02-07T00:15:47.993Z,100912.16
2018-02-07T00:18:16.342Z,100914.22
2018-02-07T00:20:44.724Z,100921.55
2018-02-07T00:23:13.082Z,100924.63
2018-02-07T00:25:42.228Z,100919.75
2018-02-07T00:28:10.612Z,100916.77
2018-02-07T00:30:38.976Z,100914.42
2018-02-07T00:33:07.352Z,100912.84
2018-02-07T00:35:35.728Z,100912.22
2018-02-07T00:38:04.076Z,100907.20
2018-02-07T00:40:32.447Z,100910.71
2018-02-07T00:43:01.585Z,100906.94
2018-02-07T00:45:30.010Z,100912.08
2018-02-07T00:47:58.409Z,100915.44
2018-02-07T00:50:26.792Z,100919.24
2018-02-07T00:52:55.548Z,100923.45
2018-02-07T00:55:24.372Z,100914.09
2018-02-07T00:57:52.736Z,100919.55
2018-02-07T01:00:21.128Z,100921.73
2018-02-07T01:02:49.504Z,100922.84
2018-02-07T01:05:17.904Z,100918.67
2018-02-07T01:07:46.304Z,100914.13
2018-02-07T01:10:14.688Z,100914.13
2018-02-07T01:12:43.062Z,100915.61
2018-02-07T01:15:11.449Z,100915.64
2018-02-07T01:17:39.797Z,100911.66
2018-02-07T01:20:08.144Z,100900.33
2018-02-07T01:22:36.569Z,100904.46
2018-02-07T01:25:04.936Z,100906.49
2018-02-07T01:27:33.320Z,100906.86
2018-02-07T01:30:01.701Z,100907.34
2018-02-07T01:32:30.087Z,100901.17
2018-02-07T01:34:58.840Z,100894.47
2018-02-07T01:37:27.208Z,100894.39
2018-02-07T01:39:55.560Z,100892.25
2018-02-07T01:42:24.342Z,100895.80
2018-02-07T01:44:52.704Z,100895.39
2018-02-07T01:47:22.465Z,100895.68
2018-02-07T01:49:50.849Z,100877.38
2018-02-07T01:52:19.636Z,100905.05
2018-02-07T01:54:48.388Z,100905.20
2018-02-07T01:57:17.539Z,100912.80
2018-02-07T01:59:45.891Z,100908.96
2018-02-07T02:02:14.237Z,100907.05
2018-02-07T02:04:43.387Z,100914.72
2018-02-07T02:07:11.739Z,100913.60
2018-02-07T02:09:40.122Z,100912.48
2018-02-07T02:12:09.628Z,100918.75
2018-02-07T02:14:38.020Z,100915.09
2018-02-07T02:17:07.131Z,100917.08
2018-02-07T02:19:35.884Z,100909.88
2018-02-07T02:22:04.268Z,100899.80
2018-02-07T02:24:33.461Z,100902.39
2018-02-07T02:27:02.620Z,100904.08
2018-02-07T02:29:31.735Z,100898.72
2018-02-07T02:32:00.132Z,100893.95
2018-02-07T02:34:29.264Z,100901.37
2018-02-07T02:36:58.621Z,100900.12
2018-02-07T02:39:27.008Z,100901.95
2018-02-07T02:41:55.399Z,100903.20
2018-02-07T02:44:23.752Z,100902.76
2018-02-07T02:46:52.892Z,100901.02
2018-02-07T02:49:21.667Z,100893.38
2018-02-07T02:51:50.455Z,100891.98
2018-02-07T02:54:18.811Z,100893.64
2018-02-07T02:56:47.193Z,100890.47
2018-02-07T02:59:16.684Z,100880.45
2018-02-07T03:01:45.471Z,100870.35
2018-02-07T03:04:14.595Z,100859.63
2018-02-07T03:06:43.023Z,100854.03
2018-02-07T03:09:11.400Z,100849.87
2018-02-07T03:11:39.779Z,100837.22
2018-02-07T03:14:08.163Z,100825.56
2018-02-07T03:16:37.335Z,100821.06
2018-02-07T03:19:05.683Z,100820.36
2018-02-07T03:21:34.431Z,100816.56
2018-02-07T03:24:03.588Z,100817.41
2018-02-07T03:26:32.372Z,100815.86
2018-02-07T03:29:00.751Z,100827.36
2018-02-07T03:31:29.123Z,100841.91
2018-02-07T03:33:57.491Z,100851.55
2018-02-07T03:36:25.866Z,100857.20
2018-02-07T03:38:54.207Z,100872.56
2018-02-07T03:41:23.371Z,100883.41
2018-02-07T03:43:52.479Z,100888.73
2018-02-07T03:46:20.854Z,100896.91
2018-02-07T03:48:49.254Z,100901.31
2018-02-07T03:51:18.378Z,100897.44
2018-02-07T03:53:46.798Z,100897.48
2018-02-07T03:56:15.146Z,100898.37
2018-02-07T03:58:43.535Z,100902.92
2018-02-07T04:01:12.731Z,100898.81
2018-02-07T04:03:41.875Z,100903.53
2018-02-07T04:06:11.003Z,100898.25
2018-02-07T04:08:40.167Z,100895.88
2018-02-07T04:11:09.323Z,100879.84
2018-02-07T04:13:37.686Z,100899.38
2018-02-07T04:16:06.059Z,100896.16
2018-02-07T04:18:34.399Z,100903.61
2018-02-07T04:21:03.514Z,100901.91
2018-02-07T04:23:31.895Z,100903.92
2018-02-07T04:26:00.234Z,100903.16
2018-02-07T04:28:28.642Z,100897.63
2018-02-07T04:30:56.983Z,100900.33
2018-02-07T04:33:25.342Z,100900.73
2018-02-07T04:35:53.739Z,100909.07
2018-02-07T04:38:22.478Z,100902.73
2018-02-07T04:40:50.820Z,100902.14
2018-02-07T04:43:19.978Z,100904.72
2018-02-07T04:45:48.326Z,100893.44
2018-02-07T04:48:16.698Z,100890.09
2018-02-07T04:50:45.043Z,100886.98
2018-02-07T04:53:13.414Z,100878.77
2018-02-07T04:55:41.806Z,100874.41
2018-02-07T04:58:11.662Z,100876.23
2018-02-07T05:00:40.038Z,100873.84
2018-02-07T05:03:08.411Z,100871.17
2018-02-07T05:05:36.844Z,100869.22
2018-02-07T05:08:05.201Z,100864.66
2018-02-07T05:10:33.566Z,100860.13
2018-02-07T05:13:01.966Z,100863.08
2018-02-07T05:15:30.322Z,100859.80
2018-02-07T05:18:00.206Z,100862.73
2018-02-07T05:20:28.586Z,100863.09
2018-02-07T05:22:57.810Z,100868.33
2018-02-07T05:25:26.193Z,100870.29
2018-02-07T05:27:54.534Z,100863.11
2018-02-07T05:30:22.910Z,100865.69
2018-02-07T05:32:51.265Z,100871.59
2018-02-07T05:35:20.417Z,100872.95
2018-02-07T05:37:48.794Z,100865.62
2018-02-07T05:40:17.178Z,100866.39
2018-02-07T05:42:45.527Z,100867.57
2018-02-07T05:45:13.881Z,100866.20
2018-02-07T05:47:43.038Z,100868.16
2018-02-07T05:50:11.422Z,100873.91
2018-02-07T05:52:39.769Z,100872.23
2018-02-07T05:55:08.137Z,100874.15
2018-02-07T05:57:36.490Z,100878.83
2018-02-07T06:00:05.645Z,100882.95
2018-02-07T06:02:34.030Z,100882.53
2018-02-07T06:05:02.426Z,100876.75
2018-02-07T06:07:31.173Z,100893.23
2018-02-07T06:09:59.562Z,100891.44
2018-02-07T06:12:27.909Z,100895.79
2018-02-07T06:14:56.261Z,100901.15
2018-02-07T06:17:25.389Z,100902.68
2018-02-07T06:19:53.734Z,100900.14
2018-02-07T06:22:22.881Z,100905.89
2018-02-07T06:24:51.238Z,100895.67
2018-02-07T06:27:20.034Z,100897.76
2018-02-07T06:29:48.393Z,100894.83
2018-02-07T06:32:16.765Z,100897.00
2018-02-07T06:34:45.986Z,100908.68
2018-02-07T06:37:14.381Z,100901.03
2018-02-07T06:39:42.737Z,100893.06
2018-02-07T06:42:11.088Z,100898.13
2018-02-07T06:44:39.481Z,100902.16
2018-02-07T06:47:07.858Z,100903.38
2018-02-07T06:49:36.205Z,100906.52
2018-02-07T06:52:04.545Z,100807.23
2018-02-07T06:54:32.933Z,100912.19
2018-02-07T06:57:02.085Z,100909.61
2018-02-07T06:59:31.249Z,100925.11
2018-02-07T07:02:00.029Z,100916.58
2018-02-07T07:04:28.425Z,100923.84
2018-02-07T07:06:56.795Z,100913.27
2018-02-07T07:09:25.181Z,100917.03
2018-02-07T07:11:54.321Z,100916.81
2018-02-07T07:14:22.721Z,100912.58
2018-02-07T07:16:51.512Z,100920.63
2018-02-07T07:19:22.545Z,100916.51
2018-02-07T07:21:50.933Z,100920.49
2018-02-07T07:24:19.641Z,100916.52
2018-02-07T07:26:48.877Z,100921.59
2018-02-07T07:29:17.253Z,100921.47
2018-02-07T07:31:45.707Z,100921.04
2018-02-07T07:34:14.113Z,100928.49
2018-02-07T07:36:42.552Z,100923.77
2018-02-07T07:39:10.921Z,100921.41
2018-02-07T07:41:39.335Z,100925.56
2018-02-07T07:44:09.960Z,100929.66
2018-02-07T07:46:39.174Z,100920.39
2018-02-07T07:49:07.942Z,100926.94
2018-02-07T07:51:37.097Z,100932.00
2018-02-07T07:54:05.841Z,100933.58
2018-02-07T07:56:34.988Z,100933.98
2018-02-07T07:59:03.370Z,100932.98
2018-02-07T08:01:31.740Z,100933.20
2018-02-07T08:04:00.122Z,100927.51
2018-02-07T08:06:29.250Z,100919.48
2018-02-07T08:08:58.642Z,100922.89
2018-02-07T08:11:26.990Z,100925.77
2018-02-07T08:13:55.410Z,100925.69
2018-02-07T08:16:24.525Z,100928.81
2018-02-07T08:18:52.915Z,100917.66
2018-02-07T08:21:21.272Z,100919.76
2018-02-07T08:23:50.425Z,100917.65
2018-02-07T08:26:18.789Z,100914.11
2018-02-07T08:28:47.172Z,100905.49
2018-02-07T08:31:15.560Z,100900.72
2018-02-07T08:33:43.968Z,100899.84
2018-02-07T08:36:13.113Z,100898.04
2018-02-07T08:38:41.484Z,100902.53
2018-02-07T08:41:09.856Z,100895.29
2018-02-07T08:43:38.259Z,100896.20
2018-02-07T08:46:06.640Z,100902.89
2018-02-07T08:48:34.976Z,100906.27
2018-02-07T08:51:04.118Z,100909.91
2018-02-07T08:53:32.496Z,100905.41
2018-02-07T08:56:00.840Z,100912.91
2018-02-07T08:58:29.181Z,100914.77
2018-02-07T09:00:58.321Z,100917.74
2018-02-07T09:03:26.682Z,100920.14
2018-02-07T09:05:55.057Z,100926.48
2018-02-07T09:08:23.416Z,100925.41
2018-02-07T09:10:52.556Z,100931.36
2018-02-07T09:13:22.065Z,100929.74
2018-02-07T09:15:50.457Z,100924.89
2018-02-07T09:18:18.833Z,100925.98
2018-02-07T09:20:47.216Z,100934.95
2018-02-07T09:23:15.568Z,100939.39
2018-02-07T09:25:43.912Z,100940.30
2018-02-07T09:28:12.297Z,100943.64
2018-02-07T09:30:40.654Z,100945.27
2018-02-07T09:33:09.032Z,100953.73
2018-02-07T09:35:37.377Z,100959.73
2018-02-07T09:38:05.776Z,100966.73
2018-02-07T09:40:34.145Z,100970.22
2018-02-07T09:43:02.491Z,100965.63
2018-02-07T09:45:30.861Z,100971.27
2018-02-07T09:47:59.244Z,100970.64
2018-02-07T09:50:27.638Z,100976.37
2018-02-07T09:52:56.792Z,100983.67
2018-02-07T09:55:25.964Z,100994.62
2018-02-07T09:57:54.318Z,100999.70
2018-02-07T10:00:22.690Z,100996.63
2018-02-07T10:02:51.088Z,100993.87
2018-02-07T10:05:19.463Z,100988.05
2018-02-07T10:07:47.856Z,100984.77
2018-02-07T10:10:16.236Z,100991.32
2018-02-07T10:12:44.584Z,100981.31
2018-02-07T10:15:12.984Z,100994.86
2018-02-07T10:17:41.331Z,100978.64
2018-02-07T10:20:09.671Z,100981.12
2018-02-07T10:22:38.853Z,100982.44
2018-02-07T10:25:07.232Z,100982.24
2018-02-07T10:27:35.587Z,100991.25
2018-02-07T10:30:03.968Z,100983.30
2018-02-07T10:32:32.344Z,100982.48
2018-02-07T10:35:00.764Z,100979.09
2018-02-07T10:37:29.911Z,100974.73
2018-02-07T10:39:58.291Z,100966.14
2018-02-07T10:42:26.667Z,100968.58
2018-02-07T10:44:55.032Z,100976.41
2018-02-07T10:47:23.408Z,100970.16
2018-02-07T10:49:51.804Z,100971.02
2018-02-07T10:52:20.160Z,100970.89
2018-02-07T10:54:48.550Z,100965.27
2018-02-07T10:57:16.959Z,100968.56
2018-02-07T10:59:45.623Z,100961.20
2018-02-07T11:02:14.167Z,100959.56
2018-02-07T11:04:42.555Z,100965.47
2018-02-07T11:07:11.709Z,100962.61
2018-02-07T11:09:40.083Z,100962.09
2018-02-07T11:12:09.270Z,100962.44
2018-02-07T11:14:38.012Z,100960.22
2018-02-07T11:17:06.356Z,100958.52
2018-02-07T11:19:35.499Z,100955.78
2018-02-07T11:22:03.879Z,100958.91
2018-02-07T11:24:32.285Z,100956.92
2018-02-07T11:27:00.671Z,100945.58
2018-02-07T11:29:29.011Z,100948.08
2018-02-07T11:31:57.408Z,100948.72
2018-02-07T11:34:25.824Z,100947.77
2018-02-07T11:36:54.986Z,100951.00
2018-02-07T11:39:23.365Z,100948.55
2018-02-07T11:41:51.722Z,100945.37
2018-02-07T11:44:20.099Z,100941.34
2018-02-07T11:46:48.437Z,100935.28
2018-02-07T11:49:17.589Z,100937.43
2018-02-07T11:51:45.931Z,100931.70
2018-02-07T11:54:14.339Z,100925.39
2018-02-07T11:56:42.681Z,100912.03
2018-02-07T11:59:11.039Z,100918.80
2018-02-07T12:01:40.182Z,100914.89
2018-02-07T12:04:08.571Z,100908.20
2018-02-07T12:06:36.915Z,100905.03
2018-02-07T12:09:05.299Z,100899.08
2018-02-07T12:11:33.663Z,100903.55
2018-02-07T12:14:01.995Z,100894.01
2018-02-07T12:16:30.383Z,100889.41
2018-02-07T12:18:58.726Z,100892.74
2018-02-07T12:21:27.091Z,100882.73
2018-02-07T12:23:55.441Z,100886.55
2018-02-07T12:26:24.575Z,100886.17
2018-02-07T12:28:52.923Z,100881.41
2018-02-07T12:31:21.323Z,100876.00
2018-02-07T12:33:49.649Z,100886.39
2018-02-07T12:36:18.035Z,100887.55
2018-02-07T12:38:47.225Z,100890.22
2018-02-07T12:41:15.583Z,100879.55
2018-02-07T12:43:43.932Z,100876.28
2018-02-07T12:46:12.310Z,100876.38
2018-02-07T12:48:40.652Z,100881.16
2018-02-07T12:51:08.974Z,100876.61
2018-02-07T12:53:37.391Z,100874.83
2018-02-07T12:56:05.730Z,100870.35
2018-02-07T12:58:34.106Z,100868.33
2018-02-07T13:01:02.510Z,100869.29
2018-02-07T13:03:31.075Z,100872.24
2018-02-07T13:05:59.434Z,100858.80
2018-02-07T13:08:27.811Z,100855.03
2018-02-07T13:10:56.728Z,100858.75
2018-02-07T13:13:25.079Z,100857.00
2018-02-07T13:15:53.450Z,100856.14
2018-02-07T13:18:21.785Z,100850.13
2018-02-07T13:20:50.161Z,100856.91
2018-02-07T13:23:18.498Z,100858.08
2018-02-07T13:25:46.878Z,100857.78
2018-02-07T13:28:15.282Z,100867.67
2018-02-07T13:30:43.626Z,100872.38
2018-02-07T13:33:12.016Z,100869.27
2018-02-07T13:35:40.358Z,100860.67
2018-02-07T13:38:08.694Z,100863.28
2018-02-07T13:40:37.073Z,100860.23
2018-02-07T13:43:05.458Z,100862.05
2018-02-07T13:45:33.798Z,100862.15
2018-02-07T13:48:02.186Z,100859.86
2018-02-07T13:50:30.549Z,100859.10
2018-02-07T13:52:58.894Z,100864.42
2018-02-07T13:55:28.043Z,100860.42
2018-02-07T13:57:56.381Z,100868.38
2018-02-07T14:00:24.776Z,100870.33
2018-02-07T14:02:53.124Z,100863.70
2018-02-07T14:05:22.266Z,100868.50
2018-02-07T14:07:50.625Z,100871.55
2018-02-07T14:10:18.992Z,100869.69
2018-02-07T14:12:47.342Z,100867.66
2018-02-07T14:15:16.494Z,100872.46
2018-02-07T14:17:44.841Z,100872.39
2018-02-07T14:20:13.218Z,100876.69
2018-02-07T14:22:41.600Z,100873.97
2018-02-07T14:25:09.955Z,100873.05
2018-02-07T14:27:39.106Z,100878.23
2018-02-07T14:30:07.474Z,100873.38
2018-02-07T14:32:35.859Z,100868.91
2018-02-07T14:35:04.230Z,100872.66
2018-02-07T14:37:32.588Z,100873.54
2018-02-07T14:40:00.962Z,100880.48
2018-02-07T14:42:29.372Z,100876.09
2018-02-07T14:44:57.754Z,100869.53
2018-02-07T14:47:26.093Z,100870.38
2018-02-07T14:49:54.442Z,100866.76
2018-02-07T14:52:23.583Z,100866.33
2018-02-07T14:54:51.938Z,100870.23
2018-02-07T14:57:20.318Z,100874.52
2018-02-07T14:59:48.674Z,100874.45
2018-02-07T15:02:17.829Z,100879.55
2018-02-07T15:04:46.293Z,100882.48
2018-02-07T15:07:14.675Z,100888.09
2018-02-07T15:09:43.013Z,100882.83
2018-02-07T15:12:12.153Z,100887.11
2018-02-07T15:14:40.502Z,100889.88
2018-02-07T15:17:08.885Z,100893.79
2018-02-07T15:19:37.226Z,100898.27
2018-02-07T15:22:07.107Z,100901.08
2018-02-07T15:24:35.489Z,100894.45
2018-02-07T15:27:03.861Z,100895.21
2018-02-07T15:29:32.264Z,100893.77
2018-02-07T15:32:00.617Z,100894.53
2018-02-07T15:34:29.003Z,100893.01
2018-02-07T15:36:57.389Z,100898.02
2018-02-07T15:39:25.769Z,100900.56
2018-02-07T15:41:54.114Z,100895.19
2018-02-07T15:44:22.539Z,100901.50
2018-02-07T15:46:50.906Z,100902.24
2018-02-07T15:49:19.297Z,100898.73
2018-02-07T15:51:47.729Z,100900.80
2018-02-07T15:54:16.069Z,100897.59
2018-02-07T15:56:45.215Z,100904.30
2018-02-07T15:59:13.562Z,100903.97
2018-02-07T16:01:41.949Z,100902.81
2018-02-07T16:04:10.308Z,100904.48
2018-02-07T16:06:39.441Z,100909.92
2018-02-07T16:09:07.829Z,100904.55
2018-02-07T16:11:36.193Z,100909.80
2018-02-07T16:14:04.593Z,100916.94
2018-02-07T16:16:32.981Z,100917.33
2018-02-07T16:19:01.338Z,100919.18
2018-02-07T16:21:29.724Z,100919.25
2018-02-07T16:23:58.085Z,100918.09
2018-02-07T16:26:26.464Z,100923.57
2018-02-07T16:28:54.913Z,100928.36
2018-02-07T16:31:23.272Z,100926.27
2018-02-07T16:33:53.030Z,100932.31
2018-02-07T16:36:21.437Z,100933.59
2018-02-07T16:38:49.904Z,100930.89
2018-02-07T16:41:18.506Z,100942.54
2018-02-07T16:43:47.766Z,100947.39
2018-02-07T16:46:16.363Z,100941.28
2018-02-07T16:48:44.830Z,100942.17
2018-02-07T16:51:14.113Z,100953.84
2018-02-07T16:53:42.478Z,100952.71
2018-02-07T16:56:11.622Z,100951.75
2018-02-07T16:58:39.974Z,100949.10
2018-02-07T17:01:08.338Z,100962.00
2018-02-07T17:03:36.725Z,100964.83
2018-02-07T17:06:05.084Z,100967.52
2018-02-07T17:08:34.454Z,100974.25
2018-02-07T17:11:02.869Z,100977.27
2018-02-07T17:13:31.678Z,100980.94
2018-02-07T17:16:00.066Z,100982.03
2018-02-07T17:18:28.417Z,100980.38
2018-02-07T17:20:57.573Z,100990.87
2018-02-07T17:23:25.964Z,100983.41
2018-02-07T17:25:54.305Z,100985.36
2018-02-07T17:28:22.694Z,100983.35
2018-02-07T17:30:51.066Z,100981.45
2018-02-07T17:33:19.460Z,100982.18
2018-02-07T17:35:47.862Z,100987.78
2018-02-07T17:38:16.213Z,100991.84
2018-02-07T17:40:44.608Z,100994.19
2018-02-07T17:43:12.968Z,101002.42
2018-02-07T17:45:41.382Z,100994.22
2018-02-07T17:48:10.524Z,100994.22
2018-02-07T17:50:38.929Z,101002.53
2018-02-07T17:53:07.335Z,101001.42
2018-02-07T17:55:36.340Z,101004.00
2018-02-07T17:58:04.757Z,101005.14
2018-02-07T18:00:33.240Z,101011.28
2018-02-07T18:03:01.606Z,101021.42
2018-02-07T18:05:29.980Z,101012.61
2018-02-07T18:07:58.332Z,101012.26
2018-02-07T18:10:27.837Z,101020.07
2018-02-07T18:12:56.238Z,101017.35
2018-02-07T18:15:24.618Z,101016.80
2018-02-07T18:17:52.991Z,101020.98
2018-02-07T18:20:21.364Z,101017.86
2018-02-07T18:22:49.845Z,101020.94
2018-02-07T18:25:18.208Z,101025.75
2018-02-07T18:27:47.372Z,101028.42
2018-02-07T18:30:15.779Z,101027.67
2018-02-07T18:32:44.916Z,101020.59
2018-02-07T18:35:13.321Z,101031.22
2018-02-07T18:37:41.908Z,101035.55
2018-02-07T18:40:11.077Z,101031.19
2018-02-07T18:42:39.441Z,101025.97
2018-02-07T18:45:07.834Z,101031.88
2018-02-07T18:47:39.255Z,101037.37
2018-02-07T18:50:12.196Z,101038.19
2018-02-07T18:52:40.795Z,101029.57
2018-02-07T18:55:09.965Z,101033.84
2018-02-07T18:57:38.447Z,101035.80
2018-02-07T19:00:06.848Z,101033.84
2018-02-07T19:02:35.405Z,101038.23
2018-02-07T19:05:04.153Z,101035.55
2018-02-07T19:07:32.501Z,101042.91
2018-02-07T19:10:01.645Z,101039.72
2018-02-07T19:12:30.041Z,101040.09
2018-02-07T19:14:58.421Z,101042.28
2018-02-07T19:17:27.644Z,101049.52
2018-02-07T19:19:56.420Z,101046.09
2018-02-07T19:22:24.841Z,101045.45
2018-02-07T19:24:54.581Z,101056.98
2018-02-07T19:27:26.160Z,101045.16
2018-02-07T19:29:54.511Z,101046.21
2018-02-07T19:32:23.907Z,101051.47
2018-02-07T19:34:52.268Z,101058.54
2018-02-07T19:37:20.613Z,101051.21
2018-02-07T19:39:49.605Z,101053.51
2018-02-07T19:42:18.379Z,101056.67
2018-02-07T19:44:46.803Z,101052.31
2018-02-07T19:47:15.177Z,101051.57
2018-02-07T19:49:44.331Z,101058.97
2018-02-07T19:52:14.188Z,101058.25
2018-02-07T19:54:42.551Z,101054.20
2018-02-07T19:57:10.901Z,101059.45
2018-02-07T19:59:39.307Z,101056.77
2018-02-07T20:02:08.436Z,101057.21
2018-02-07T20:04:36.787Z,101049.75
2018-02-07T20:07:06.824Z,101050.88
2018-02-07T20:09:35.174Z,101061.66
2018-02-07T20:12:03.562Z,101059.98
2018-02-07T20:14:32.728Z,101062.88
2018-02-07T20:17:01.892Z,101066.49
2018-02-07T20:19:30.248Z,101070.55
2018-02-07T20:21:58.680Z,101069.33
2018-02-07T20:24:27.899Z,101063.08
2018-02-07T20:26:57.806Z,101063.56
2018-02-07T20:29:27.734Z,101065.27
2018-02-07T20:31:57.486Z,101064.41
2018-02-07T20:34:25.903Z,101061.44
2018-02-07T20:36:54.924Z,101064.44
2018-02-07T20:39:24.087Z,101066.03
2018-02-07T20:41:52.461Z,101066.58
2018-02-07T20:44:22.194Z,101065.31
2018-02-07T20:46:50.634Z,101072.39
2018-02-07T20:49:19.047Z,101071.96
2018-02-07T20:51:49.855Z,101058.02
2018-02-07T20:54:18.251Z,101057.92
2018-02-07T20:56:47.555Z,101059.06
2018-02-07T20:59:16.662Z,101057.63
2018-02-07T21:01:45.847Z,101059.61
2018-02-07T21:04:15.754Z,101058.94
2018-02-07T21:06:44.304Z,101066.68
2018-02-07T21:09:13.322Z,101065.62
2018-02-07T21:11:41.719Z,101067.84
2018-02-07T21:14:10.867Z,101074.08
2018-02-07T21:16:41.324Z,101075.13
2018-02-07T21:19:09.714Z,101069.14
2018-02-07T21:21:38.871Z,101068.95
2018-02-07T21:24:07.258Z,101069.63
2018-02-07T21:26:35.638Z,101072.44
2018-02-07T21:29:04.030Z,101078.57
2018-02-07T21:31:32.377Z,101070.02
2018-02-07T21:34:01.930Z,101071.94
2018-02-07T21:36:30.338Z,101069.80
2018-02-07T21:38:59.591Z,101066.56
2018-02-07T21:41:27.917Z,101062.36
2018-02-07T21:43:57.798Z,101061.50
2018-02-07T21:46:26.179Z,101062.45
2018-02-07T21:48:55.259Z,101068.44
2018-02-07T21:51:23.626Z,101070.98
2018-02-07T21:53:52.074Z,101074.28
2018-02-07T21:56:20.816Z,101080.31
2018-02-07T21:58:49.254Z,101078.41
2018-02-07T22:01:18.327Z,101081.72
2018-02-07T22:03:46.716Z,101078.77
2018-02-07T22:06:15.059Z,101081.72
2018-02-07T22:08:43.446Z,101081.66
2018-02-07T22:11:11.822Z,101080.97
2018-02-07T22:13:40.155Z,101087.94
2018-02-07T22:16:08.518Z,101079.76
2018-02-07T22:18:36.850Z,101086.41
2018-02-07T22:21:05.252Z,101091.64
2018-02-07T22:23:33.639Z,101090.52
2018-02-07T22:26:01.998Z,101085.95
2018-02-07T22:28:30.397Z,101084.09
2018-02-07T22:30:58.766Z,101086.58
2018-02-07T22:33:27.102Z,101079.45
2018-02-07T22:35:55.561Z,101077.55
2018-02-07T22:38:23.943Z,101089.09
2018-02-07T22:40:52.288Z,101085.59
2018-02-07T22:43:20.673Z,101087.95
2018-02-07T22:45:49.017Z,101082.67
2018-02-07T22:48:17.368Z,101090.19
2018-02-07T22:50:45.753Z,101090.98
2018-02-07T22:53:14.089Z,101101.28
2018-02-07T22:55:42.477Z,101091.97
2018-02-07T22:58:10.820Z,101094.56
2018-02-07T23:00:39.172Z,101098.05
2018-02-07T23:03:08.319Z,101099.64
2018-02-07T23:05:36.705Z,101104.62
2018-02-07T23:08:05.084Z,101104.30
2018-02-07T23:10:33.489Z,101107.63
2018-02-07T23:13:02.238Z,101108.00
2018-02-07T23:15:30.621Z,101109.54
2018-02-07T23:17:59.060Z,101113.44
2018-02-07T23:20:27.393Z,101119.55
2018-02-07T23:22:55.769Z,101116.56
2018-02-07T23:25:24.573Z,101113.52
2018-02-07T23:27:53.369Z,101115.00
2018-02-07T23:30:21.735Z,101113.61
2018-02-07T23:32:50.137Z,101107.30
2018-02-07T23:35:19.329Z,101116.33
2018-02-07T23:37:47.754Z,101115.47
2018-02-07T23:40:16.109Z,101114.12
2018-02-07T23:42:44.505Z,101114.70
2018-02-07T23:45:12.881Z,101113.61
2018-02-07T23:47:41.289Z,101110.11
2018-02-07T23:50:09.643Z,101109.30
2018-02-07T23:52:38.001Z,101125.69
2018-02-07T23:55:06.377Z,101120.78
2018-02-07T23:57:34.741Z,101120.25
